Terminal Aerodrome Forecast
Issued by NWS

Current Version | Previous Version | Graphics & Text | Print | Product List | Glossary On
Versions: 1 2 3 4 5 6 7 8 9 10 11 12 13 14 15 16 17 18 19 20 21 22 23 24 25 26 27
000
FTUS41 KRNK 201722
TAFLWB
TAF
KLWB 201722Z 2018/2118 30009KT P6SM VCTS BKN035CB
      TEMPO 2018/2020 VRB15G25KT 4SM TSRA OVC015CB
     FM202000 30005KT P6SM BKN035
     FM202300 VRB03KT P6SM BKN030
     FM210800 00000KT 1/2SM FG BKN015
     FM211000 00000KT 1/4SM FG BKN001
     FM211300 VRB03KT P6SM SCT035=

USA.gov is the U.S. government's official web portal to all federal, state and local government web resources and services.